createdAt,value
2022-09-15T00:00:10.358Z,100811.41
2022-09-15T00:02:13.196Z,100815.75
2022-09-15T00:04:15.551Z,100814.03
2022-09-15T00:06:17.941Z,100816.66
2022-09-15T00:08:20.196Z,100819.25
2022-09-15T00:10:22.431Z,100812.34
2022-09-15T00:12:24.574Z,100815.81
2022-09-15T00:14:26.729Z,100816.69
2022-09-15T00:16:31.308Z,100821.00
2022-09-15T00:18:34.440Z,100827.94
2022-09-15T00:20:41.393Z,100821.88
2022-09-15T00:22:44.537Z,100827.06
2022-09-15T00:24:49.572Z,100827.06
2022-09-15T00:26:51.720Z,100840.97
2022-09-15T00:28:54.679Z,100834.06
2022-09-15T00:30:56.839Z,100835.78
2022-09-15T00:32:59.089Z,100834.94
2022-09-15T00:35:01.658Z,100836.66
2022-09-15T00:37:03.949Z,100840.16
2022-09-15T00:39:06.471Z,100841.88
2022-09-15T00:41:12.470Z,100844.50
2022-09-15T00:43:16.192Z,100838.41
2022-09-15T00:45:18.467Z,100835.81
2022-09-15T00:47:24.942Z,100841.03
2022-09-15T00:49:31.150Z,100846.22
2022-09-15T00:51:41.389Z,100847.09
2022-09-15T00:53:45.831Z,100849.69
2022-09-15T00:55:50.720Z,100854.03
2022-09-15T00:58:00.059Z,100848.84
2022-09-15T01:00:06.969Z,100852.28
2022-09-15T01:02:16.536Z,100851.47
2022-09-15T01:04:18.679Z,100847.09
2022-09-15T01:06:29.700Z,100858.38
2022-09-15T01:08:36.633Z,100854.00
2022-09-15T01:10:41.428Z,100855.75
2022-09-15T01:12:43.670Z,100852.31
2022-09-15T01:14:45.795Z,100861.81
2022-09-15T01:16:54.260Z,100862.69
2022-09-15T01:18:58.148Z,100858.34
2022-09-15T01:21:03.756Z,100856.59
2022-09-15T01:23:18.970Z,100858.38
2022-09-15T01:25:27.232Z,100854.91
2022-09-15T01:27:43.029Z,100848.84
2022-09-15T01:29:46.058Z,100860.09
2022-09-15T01:31:55.207Z,100860.97
2022-09-15T01:34:06.807Z,100854.88
2022-09-15T01:36:13.473Z,100858.34
2022-09-15T01:38:21.848Z,100858.38
2022-09-15T01:40:28.842Z,100860.94
2022-09-15T01:42:32.857Z,100860.97
2022-09-15T01:44:42.828Z,100863.53
2022-09-15T01:46:48.313Z,100864.44
2022-09-15T01:48:54.449Z,100864.41
2022-09-15T01:51:00.369Z,100862.69
2022-09-15T01:53:08.611Z,100860.09
2022-09-15T01:55:18.397Z,100856.63
2022-09-15T01:57:21.762Z,100857.50
2022-09-15T01:59:23.921Z,100854.03
2022-09-15T02:01:40.836Z,100856.63
2022-09-15T02:03:50.514Z,100857.50
2022-09-15T02:06:02.173Z,100862.69
2022-09-15T02:08:09.151Z,100856.63
2022-09-15T02:10:14.873Z,100853.16
2022-09-15T02:12:25.570Z,100849.72
2022-09-15T02:14:38.282Z,100846.25
2022-09-15T02:16:46.984Z,100847.13
2022-09-15T02:18:58.350Z,100851.44
2022-09-15T02:21:10.630Z,100844.50
2022-09-15T02:23:21.895Z,100847.09
2022-09-15T02:25:32.397Z,100853.16
2022-09-15T02:27:41.321Z,100854.88
2022-09-15T02:29:48.069Z,100856.66
2022-09-15T02:31:54.514Z,100858.34
2022-09-15T02:34:02.469Z,100858.34
2022-09-15T02:36:05.425Z,100860.09
2022-09-15T02:38:10.018Z,100855.75
2022-09-15T02:40:12.712Z,100851.44
2022-09-15T02:42:24.761Z,100857.50
2022-09-15T02:44:27.318Z,100854.91
2022-09-15T02:46:29.680Z,100856.63
2022-09-15T02:48:31.846Z,100860.09
2022-09-15T02:50:33.942Z,100861.81
2022-09-15T02:52:36.104Z,100855.78
2022-09-15T02:54:38.330Z,100857.50
2022-09-15T02:56:41.260Z,100853.19
2022-09-15T02:58:44.180Z,100853.16
2022-09-15T03:00:46.385Z,100847.09
2022-09-15T03:02:51.813Z,100845.41
2022-09-15T03:04:53.938Z,100852.31
2022-09-15T03:06:56.052Z,100852.31
2022-09-15T03:08:59.088Z,100857.50
2022-09-15T03:11:02.073Z,100857.50
2022-09-15T03:13:06.653Z,100851.44
2022-09-15T03:15:11.271Z,100857.50
2022-09-15T03:17:13.658Z,100854.91
2022-09-15T03:19:15.839Z,100852.28
2022-09-15T03:21:19.365Z,100850.56
2022-09-15T03:23:24.924Z,100854.03
2022-09-15T03:25:27.314Z,100853.16
2022-09-15T03:27:29.736Z,100857.50
2022-09-15T03:29:32.031Z,100863.56
2022-09-15T03:31:34.264Z,100863.56
2022-09-15T03:33:36.973Z,100863.53
2022-09-15T03:35:39.925Z,100862.69
2022-09-15T03:37:42.138Z,100864.41
2022-09-15T03:39:45.490Z,100869.63
2022-09-15T03:41:50.421Z,100867.88
2022-09-15T03:43:54.155Z,100871.34
2022-09-15T03:45:56.977Z,100869.63
2022-09-15T03:47:59.092Z,100865.28
2022-09-15T03:50:01.191Z,100870.47
2022-09-15T03:52:03.740Z,100872.22
2022-09-15T03:54:05.908Z,100871.34
2022-09-15T03:56:10.000Z,100867.91
2022-09-15T03:58:13.789Z,100861.84
2022-09-15T04:00:17.368Z,100867.03
2022-09-15T04:02:19.516Z,100870.47
2022-09-15T04:04:21.790Z,100861.81
2022-09-15T04:06:24.505Z,100865.28
2022-09-15T04:08:26.618Z,100860.09
2022-09-15T04:10:29.510Z,100867.00
2022-09-15T04:12:32.635Z,100865.25
2022-09-15T04:14:34.851Z,100863.56
2022-09-15T04:16:36.959Z,100864.41
2022-09-15T04:18:39.225Z,100867.00
2022-09-15T04:20:42.226Z,100866.13
2022-09-15T04:22:45.488Z,100867.00
2022-09-15T04:24:48.625Z,100865.25
2022-09-15T04:26:51.661Z,100861.78
2022-09-15T04:28:56.883Z,100862.69
2022-09-15T04:31:06.709Z,100854.88
2022-09-15T04:33:09.305Z,100852.28
2022-09-15T04:35:11.644Z,100860.94
2022-09-15T04:37:14.155Z,100867.00
2022-09-15T04:39:16.655Z,100863.53
2022-09-15T04:41:19.790Z,100854.88
2022-09-15T04:43:22.689Z,100862.66
2022-09-15T04:45:24.798Z,100860.94
2022-09-15T04:47:27.032Z,100879.09
2022-09-15T04:49:29.290Z,100873.91
2022-09-15T04:51:31.498Z,100865.25
2022-09-15T04:53:33.851Z,100872.19
2022-09-15T04:55:36.769Z,100867.00
2022-09-15T04:57:38.913Z,100867.84
2022-09-15T04:59:41.198Z,100871.31
2022-09-15T05:01:44.021Z,100867.88
2022-09-15T05:03:46.750Z,100874.81
2022-09-15T05:05:48.857Z,100868.72
2022-09-15T05:07:50.969Z,100873.94
2022-09-15T05:09:53.480Z,100878.25
2022-09-15T05:11:55.853Z,100879.13
2022-09-15T05:13:58.006Z,100877.41
2022-09-15T05:16:05.170Z,100889.50
2022-09-15T05:18:09.257Z,100891.22
2022-09-15T05:20:11.656Z,100896.44
2022-09-15T05:22:13.832Z,100893.81
2022-09-15T05:24:16.981Z,100899.00
2022-09-15T05:26:23.366Z,100899.88
2022-09-15T05:28:28.748Z,100899.88
2022-09-15T05:30:38.772Z,100900.75
2022-09-15T05:32:43.489Z,100899.03
2022-09-15T05:34:46.221Z,100907.66
2022-09-15T05:36:49.776Z,100906.81
2022-09-15T05:38:53.737Z,100909.41
2022-09-15T05:41:01.607Z,100914.59
2022-09-15T05:43:03.805Z,100911.13
2022-09-15T05:45:06.673Z,100919.78
2022-09-15T05:47:08.770Z,100918.91
2022-09-15T05:49:12.045Z,100906.81
2022-09-15T05:51:16.198Z,100913.72
2022-09-15T05:53:18.509Z,100918.06
2022-09-15T05:55:20.710Z,100917.19
2022-09-15T05:57:23.057Z,100922.38
2022-09-15T05:59:25.285Z,100920.63
2022-09-15T06:01:31.237Z,100920.63
2022-09-15T06:03:33.638Z,100928.44
2022-09-15T06:05:35.709Z,100931.88
2022-09-15T06:07:37.896Z,100929.31
2022-09-15T06:09:40.229Z,100938.81
2022-09-15T06:11:42.442Z,100937.94
2022-09-15T06:13:45.645Z,100932.75
2022-09-15T06:15:48.310Z,100936.22
2022-09-15T06:17:50.976Z,100941.41
2022-09-15T06:19:53.245Z,100941.41
2022-09-15T06:21:55.474Z,100943.13
2022-09-15T06:24:00.131Z,100946.59
2022-09-15T06:26:08.670Z,100939.69
2022-09-15T06:28:10.758Z,100942.31
2022-09-15T06:30:13.884Z,100935.38
2022-09-15T06:32:16.134Z,100942.31
2022-09-15T06:34:18.425Z,100945.78
2022-09-15T06:36:22.976Z,100951.84
2022-09-15T06:38:25.170Z,100957.91
2022-09-15T06:40:27.432Z,100965.69
2022-09-15T06:42:29.803Z,100958.75
2022-09-15T06:44:32.050Z,100963.06
2022-09-15T06:46:34.305Z,100970.91
2022-09-15T06:48:37.589Z,100972.59
2022-09-15T06:50:39.790Z,100965.66
2022-09-15T06:52:43.784Z,100966.56
2022-09-15T06:54:46.637Z,100976.91
2022-09-15T06:56:49.110Z,100974.34
2022-09-15T06:59:12.918Z,100973.47
2022-09-15T07:06:29.711Z,100992.53
2022-09-15T07:08:36.828Z,100985.63
2022-09-15T07:10:39.017Z,100984.75
2022-09-15T07:12:43.174Z,100987.34
2022-09-15T07:14:45.776Z,100986.47
2022-09-15T07:16:48.097Z,100983.88
2022-09-15T07:18:50.310Z,100984.75
2022-09-15T07:20:53.531Z,100983.88
2022-09-15T07:22:55.699Z,100989.94
2022-09-15T07:24:57.786Z,100993.44
2022-09-15T07:27:01.174Z,100996.03
2022-09-15T07:29:06.265Z,100983.06
2022-09-15T07:31:10.433Z,100990.00
2022-09-15T07:33:14.717Z,100988.25
2022-09-15T07:35:16.889Z,100993.44
2022-09-15T07:37:19.279Z,100994.31
2022-09-15T07:39:21.691Z,100996.06
2022-09-15T07:41:27.270Z,100992.59
2022-09-15T07:43:29.430Z,100995.19
2022-09-15T07:45:32.213Z,100993.44
2022-09-15T07:47:34.432Z,100992.56
2022-09-15T07:49:36.605Z,100996.94
2022-09-15T07:51:41.490Z,101005.59
2022-09-15T07:53:45.531Z,100997.81
2022-09-15T07:55:53.533Z,100998.63
2022-09-15T07:57:59.631Z,100998.66
2022-09-15T08:00:03.584Z,101009.06
2022-09-15T08:02:05.923Z,101008.19
2022-09-15T08:04:08.166Z,101011.66
2022-09-15T08:06:11.078Z,101011.66
2022-09-15T08:08:13.549Z,101008.19
2022-09-15T08:10:15.762Z,101003.00
2022-09-15T08:12:18.193Z,101005.59
2022-09-15T08:14:20.505Z,101002.97
2022-09-15T08:16:24.577Z,101012.50
2022-09-15T08:18:26.867Z,101013.38
2022-09-15T08:20:29.029Z,101013.38
2022-09-15T08:22:31.214Z,101019.47
2022-09-15T08:24:33.666Z,101019.44
2022-09-15T08:26:38.719Z,101016.84
2022-09-15T08:28:41.739Z,101016.84
2022-09-15T08:30:43.969Z,101017.69
2022-09-15T08:32:46.877Z,101017.72
2022-09-15T08:34:48.991Z,101021.16
2022-09-15T08:36:51.210Z,101029.81
2022-09-15T08:38:53.316Z,101030.69
2022-09-15T08:41:00.934Z,101036.78
2022-09-15T08:43:16.508Z,101031.56
2022-09-15T08:45:22.969Z,101043.69
2022-09-15T08:47:31.406Z,101042.81
2022-09-15T08:49:51.479Z,101037.63
2022-09-15T08:51:56.366Z,101042.81
2022-09-15T08:54:06.296Z,101045.44
2022-09-15T08:56:17.368Z,101040.22
2022-09-15T08:58:21.275Z,101038.47
2022-09-15T09:00:27.869Z,101041.06
2022-09-15T09:02:34.651Z,101041.94
2022-09-15T09:04:41.372Z,101038.47
2022-09-15T09:06:47.305Z,101041.03
2022-09-15T09:08:50.356Z,101039.34
2022-09-15T09:10:59.391Z,101045.41
2022-09-15T09:13:06.052Z,101047.16
2022-09-15T09:15:16.279Z,101049.72
2022-09-15T09:17:19.194Z,101048.84
2022-09-15T09:19:32.262Z,101040.16
2022-09-15T09:21:40.814Z,101042.75
2022-09-15T09:23:54.991Z,101047.94
2022-09-15T09:25:58.100Z,101047.91
2022-09-15T09:28:02.599Z,101040.09
2022-09-15T09:30:14.406Z,101040.16
2022-09-15T09:32:24.832Z,101045.34
2022-09-15T09:34:33.588Z,101042.72
2022-09-15T09:36:37.035Z,101048.81
2022-09-15T09:38:42.391Z,101046.19
2022-09-15T09:40:44.918Z,101043.56
2022-09-15T09:42:47.610Z,101045.25
2022-09-15T09:44:49.891Z,101046.13
2022-09-15T09:49:01.350Z,101043.53
2022-09-15T09:51:04.068Z,101049.56
2022-09-15T09:53:13.134Z,101051.28
2022-09-15T09:55:27.422Z,101052.13
2022-09-15T09:57:32.854Z,101055.56
2022-09-15T09:59:46.342Z,101052.09
2022-09-15T10:02:06.595Z,101057.28
2022-09-15T10:04:17.638Z,101053.78
2022-09-15T10:06:22.473Z,101052.06
2022-09-15T10:08:25.752Z,101052.06
2022-09-15T10:10:35.607Z,101050.31
2022-09-15T10:12:42.393Z,101059.00
2022-09-15T10:14:52.658Z,101052.06
2022-09-15T10:16:59.497Z,101052.03
2022-09-15T10:19:02.316Z,101053.75
2022-09-15T10:21:08.168Z,101052.00
2022-09-15T10:23:16.926Z,101054.56
2022-09-15T10:25:20.867Z,101051.13
2022-09-15T10:27:27.973Z,101047.63
2022-09-15T10:29:39.299Z,101043.28
2022-09-15T10:33:57.874Z,101049.38
2022-09-15T10:36:05.974Z,101056.28
2022-09-15T10:38:17.449Z,101049.34
2022-09-15T10:40:25.913Z,101039.81
2022-09-15T10:42:32.684Z,101039.78
2022-09-15T10:44:38.338Z,101041.47
2022-09-15T10:46:41.670Z,101045.81
2022-09-15T10:48:53.247Z,101043.13
2022-09-15T10:51:07.223Z,101048.31
2022-09-15T10:53:15.850Z,101054.34
2022-09-15T10:55:42.220Z,101047.34
2022-09-15T10:57:50.110Z,101050.78
2022-09-15T10:59:58.511Z,101050.78
2022-09-15T11:02:08.594Z,101048.16
2022-09-15T11:04:18.118Z,101054.28
2022-09-15T11:06:24.061Z,101047.28
2022-09-15T11:08:33.456Z,101058.63
2022-09-15T11:10:37.075Z,101051.69
2022-09-15T11:12:42.650Z,101054.28
2022-09-15T11:14:50.718Z,101058.63
2022-09-15T11:16:59.129Z,101062.06
2022-09-15T11:19:03.022Z,101062.97
2022-09-15T11:21:11.508Z,101060.38
2022-09-15T11:23:19.988Z,101061.16
2022-09-15T11:25:27.234Z,101065.53
2022-09-15T11:27:34.397Z,101059.41
2022-09-15T11:29:57.621Z,101065.50
2022-09-15T11:32:10.074Z,101063.69
2022-09-15T11:34:13.090Z,101054.03
2022-09-15T11:36:22.681Z,101056.53
2022-09-15T11:38:31.192Z,101055.59
2022-09-15T11:40:44.451Z,101058.13
2022-09-15T11:42:55.252Z,101059.75
2022-09-15T11:44:59.689Z,101057.03
2022-09-15T11:47:05.408Z,101064.84
2022-09-15T11:49:14.210Z,101068.28
2022-09-15T11:51:19.719Z,101069.22
2022-09-15T11:53:30.197Z,101065.78
2022-09-15T11:55:38.709Z,101063.16
2022-09-15T11:57:51.438Z,101056.00
2022-09-15T12:00:03.361Z,101049.81
2022-09-15T12:02:11.836Z,101056.50
2022-09-15T12:04:27.611Z,101054.63
2022-09-15T12:06:36.098Z,101058.91
2022-09-15T12:08:43.771Z,101064.94
2022-09-15T12:10:52.590Z,101070.28
2022-09-15T12:12:57.229Z,101064.19
2022-09-15T12:14:59.611Z,101062.53
2022-09-15T12:17:04.349Z,101057.44
2022-09-15T12:19:17.314Z,101059.22
2022-09-15T12:21:31.310Z,101070.50
2022-09-15T12:23:47.244Z,101067.06
2022-09-15T12:25:52.878Z,101058.50
2022-09-15T12:28:01.418Z,101053.13
2022-09-15T12:30:28.618Z,101058.28
2022-09-15T12:32:33.455Z,101047.63
2022-09-15T12:34:38.777Z,101047.50
2022-09-15T12:36:44.345Z,101056.16
2022-09-15T12:38:50.183Z,101057.91
2022-09-15T12:40:59.094Z,101055.22
2022-09-15T12:45:21.281Z,101058.72
2022-09-15T12:47:32.814Z,101070.06
2022-09-15T12:49:42.527Z,101069.22
2022-09-15T12:54:04.878Z,101068.50
2022-09-15T12:56:11.988Z,101070.31
2022-09-15T12:58:18.854Z,101073.06
2022-09-15T13:00:42.310Z,101070.50
2022-09-15T13:02:54.555Z,101065.31
2022-09-15T13:04:58.318Z,101066.31
2022-09-15T13:07:09.327Z,101061.16
2022-09-15T13:09:22.986Z,101063.78
2022-09-15T13:11:38.938Z,101069.03
2022-09-15T13:13:47.738Z,101068.25
2022-09-15T13:15:53.464Z,101072.66
2022-09-15T13:17:57.649Z,101065.81
2022-09-15T13:20:08.919Z,101074.38
2022-09-15T13:22:13.284Z,101072.59
2022-09-15T13:24:22.050Z,101074.31
2022-09-15T13:28:29.803Z,101073.41
2022-09-15T13:30:36.870Z,101071.66
2022-09-15T13:32:47.300Z,101069.00
2022-09-15T13:40:19.164Z,101068.03
2022-09-15T13:42:26.444Z,101073.09
2022-09-15T13:45:07.402Z,101060.59
2022-09-15T13:47:24.217Z,101060.31
2022-09-15T13:49:39.849Z,101060.13
2022-09-15T13:51:47.598Z,101055.41
2022-09-15T13:53:58.709Z,101050.00
2022-09-15T13:56:07.002Z,101041.69
2022-09-15T14:00:48.546Z,101051.59
2022-09-15T14:02:57.215Z,101054.25
2022-09-15T14:04:59.509Z,101054.97
2022-09-15T14:07:02.640Z,101049.53
2022-09-15T14:09:13.560Z,101046.00
2022-09-15T14:11:22.048Z,101052.78
2022-09-15T14:13:28.223Z,101052.69
2022-09-15T14:15:30.738Z,101053.28
2022-09-15T14:17:34.502Z,101045.13
2022-09-15T14:19:38.633Z,101044.72
2022-09-15T14:21:49.418Z,101039.13
2022-09-15T14:23:56.478Z,101053.34
2022-09-15T14:26:01.830Z,101039.91
2022-09-15T14:28:05.871Z,101044.88
2022-09-15T14:30:18.303Z,101045.56
2022-09-15T14:32:21.531Z,101047.13
2022-09-15T14:34:27.074Z,101046.69
2022-09-15T14:36:33.557Z,101047.97
2022-09-15T14:38:48.791Z,101049.19
2022-09-15T14:40:57.563Z,101052.50
2022-09-15T14:43:00.916Z,101044.38
2022-09-15T14:47:32.179Z,101046.53
2022-09-15T14:49:34.493Z,101046.31
2022-09-15T14:51:44.956Z,101044.81
2022-09-15T14:54:11.002Z,101046.03
2022-09-15T14:56:20.378Z,101041.09
2022-09-15T14:58:35.578Z,101048.78
2022-09-15T15:00:45.114Z,101050.22
2022-09-15T15:03:01.249Z,101058.53
2022-09-15T15:05:18.740Z,101052.97
2022-09-15T15:07:26.716Z,101054.53
2022-09-15T15:09:38.700Z,101054.84
2022-09-15T15:11:46.144Z,101048.16
2022-09-15T15:14:07.345Z,101058.19
2022-09-15T15:16:20.221Z,101053.34
2022-09-15T15:20:58.466Z,101055.38
2022-09-15T15:23:12.520Z,101058.13
2022-09-15T15:27:35.145Z,101061.72
2022-09-15T15:29:55.654Z,101060.84
2022-09-15T15:32:08.074Z,101063.44
2022-09-15T15:34:26.391Z,101064.34
2022-09-15T15:36:32.325Z,101060.16
2022-09-15T15:38:46.384Z,101067.28
2022-09-15T15:41:05.177Z,101066.47
2022-09-15T15:43:13.830Z,101064.94
2022-09-15T15:45:33.914Z,101063.50
2022-09-15T15:50:15.104Z,101077.75
2022-09-15T15:52:23.324Z,101085.84
2022-09-15T15:54:38.784Z,101087.63
2022-09-15T15:56:43.804Z,101086.13
2022-09-15T15:58:49.110Z,101088.84
2022-09-15T16:05:02.959Z,101093.81
2022-09-15T16:07:05.620Z,101092.09
2022-09-15T16:09:08.738Z,101095.78
2022-09-15T16:15:23.742Z,101092.44
2022-09-15T16:17:26.306Z,101102.88
2022-09-15T16:19:29.109Z,101094.25
2022-09-15T16:25:52.885Z,101097.81
2022-09-15T16:34:18.926Z,101103.13
2022-09-15T16:38:26.215Z,101110.19
2022-09-15T16:40:29.768Z,101104.16
2022-09-15T16:42:39.344Z,101104.09
2022-09-15T16:44:40.954Z,101101.50
2022-09-15T16:46:43.490Z,101103.22
2022-09-15T16:48:46.742Z,101104.09
2022-09-15T16:51:16.918Z,101104.94
2022-09-15T16:53:17.876Z,101108.47
2022-09-15T16:55:42.449Z,101112.81
2022-09-15T16:57:45.320Z,101111.94
2022-09-15T17:01:54.460Z,101113.66
2022-09-15T17:04:13.150Z,101114.56
2022-09-15T17:06:18.589Z,101115.44
2022-09-15T17:14:46.026Z,101118.97
2022-09-15T17:16:50.105Z,101123.31
2022-09-15T17:18:53.798Z,101121.59
2022-09-15T17:23:34.050Z,101126.84
2022-09-15T17:27:56.539Z,101133.88
2022-09-15T17:30:26.593Z,101132.16
2022-09-15T17:32:36.759Z,101126.94
2022-09-15T17:34:39.511Z,101125.25
2022-09-15T17:38:51.770Z,101135.66
2022-09-15T17:43:00.939Z,101136.63
2022-09-15T17:45:03.423Z,101136.63
2022-09-15T17:47:11.367Z,101148.81
2022-09-15T17:53:47.170Z,101142.78
2022-09-15T17:55:55.092Z,101147.13
2022-09-15T18:00:07.853Z,101140.22
2022-09-15T18:02:19.469Z,101139.34
2022-09-15T18:04:23.192Z,101148.03
2022-09-15T18:06:27.837Z,101142.81
2022-09-15T18:08:32.309Z,101148.91
2022-09-15T18:10:38.367Z,101150.66
2022-09-15T18:12:44.165Z,101143.72
2022-09-15T18:14:58.136Z,101144.59
2022-09-15T18:17:04.440Z,101144.59
2022-09-15T18:19:06.709Z,101147.22
2022-09-15T18:21:23.429Z,101145.50
2022-09-15T18:23:31.789Z,101145.50
2022-09-15T18:27:39.779Z,101151.63
2022-09-15T18:33:53.891Z,101147.28
2022-09-15T18:38:03.097Z,101160.34
2022-09-15T18:40:11.027Z,101152.50
2022-09-15T18:44:14.389Z,101156.00
2022-09-15T18:46:27.068Z,101157.72
2022-09-15T18:48:35.131Z,101165.56
2022-09-15T18:50:37.471Z,101167.31
2022-09-15T18:52:41.352Z,101175.16
2022-09-15T18:54:45.262Z,101170.81
2022-09-15T18:56:48.112Z,101166.47
2022-09-15T18:58:53.552Z,101175.16
2022-09-15T19:00:59.391Z,101177.78
2022-09-15T19:03:03.492Z,101179.50
2022-09-15T19:05:06.533Z,101183.03
2022-09-15T19:07:10.431Z,101185.59
2022-09-15T19:09:12.709Z,101182.97
2022-09-15T19:11:14.872Z,101190.81
2022-09-15T19:13:17.250Z,101192.53
2022-09-15T19:21:35.215Z,101205.59
2022-09-15T19:23:37.254Z,101203.84
2022-09-15T19:25:43.216Z,101203.84
2022-09-15T19:28:01.913Z,101213.44
2022-09-15T19:30:07.732Z,101216.94
2022-09-15T19:32:14.045Z,101211.66
2022-09-15T19:34:16.255Z,101211.69
2022-09-15T19:38:20.484Z,101219.53
2022-09-15T19:40:28.301Z,101216.06
2022-09-15T19:42:30.734Z,101217.81
2022-09-15T19:46:35.399Z,101215.22
2022-09-15T19:48:40.911Z,101222.19
2022-09-15T19:50:46.049Z,101219.59
2022-09-15T19:52:48.334Z,101229.16
2022-09-15T19:56:56.896Z,101225.69
2022-09-15T19:58:59.478Z,101227.44
2022-09-15T20:01:01.798Z,101230.03
2022-09-15T20:05:06.934Z,101237.00
2022-09-15T20:07:09.247Z,101241.31
2022-09-15T20:09:11.750Z,101230.03
2022-09-15T20:11:14.996Z,101234.38
2022-09-15T20:15:23.056Z,101239.59
2022-09-15T20:19:35.039Z,101246.56
2022-09-15T20:21:50.294Z,101251.78
2022-09-15T20:26:30.653Z,101250.03
2022-09-15T20:28:34.119Z,101248.31
2022-09-15T20:30:36.559Z,101242.22
2022-09-15T20:32:41.521Z,101244.00
2022-09-15T20:34:43.715Z,101248.34
2022-09-15T20:38:53.982Z,101249.19
2022-09-15T20:40:56.069Z,101249.19
2022-09-15T20:42:57.692Z,101250.06
2022-09-15T20:45:00.056Z,101252.66
2022-09-15T20:47:02.292Z,101267.44
2022-09-15T20:49:05.269Z,101257.88
2022-09-15T20:53:14.579Z,101269.16
2022-09-15T20:55:16.819Z,101269.16
2022-09-15T20:57:19.034Z,101263.09
2022-09-15T21:03:30.434Z,101270.91
2022-09-15T21:05:32.768Z,101277.84
2022-09-15T21:07:35.281Z,101266.56
2022-09-15T21:09:37.464Z,101275.25
2022-09-15T21:13:43.692Z,101288.28
2022-09-15T21:15:53.906Z,101279.59
2022-09-15T21:17:56.160Z,101283.91
2022-09-15T21:20:03.716Z,101288.28
2022-09-15T21:22:08.145Z,101296.94
2022-09-15T21:24:11.131Z,101296.06
2022-09-15T21:26:29.756Z,101290.88
2022-09-15T21:28:44.905Z,101298.69
2022-09-15T21:30:49.286Z,101294.34
2022-09-15T21:32:51.660Z,101296.09
2022-09-15T21:34:56.169Z,101296.94
2022-09-15T21:36:58.450Z,101300.41
2022-09-15T21:39:00.763Z,101299.53
2022-09-15T21:41:03.934Z,101294.34
2022-09-15T21:43:06.130Z,101305.63
2022-09-15T21:47:11.363Z,101304.72
2022-09-15T21:49:13.440Z,101302.13
2022-09-15T21:51:46.514Z,101313.41
2022-09-15T21:56:52.068Z,101312.47
2022-09-15T21:59:16.270Z,101309.03
2022-09-15T22:01:45.520Z,101302.06
2022-09-15T22:03:55.705Z,101302.06
2022-09-15T22:08:05.007Z,101305.53
2022-09-15T22:10:07.331Z,101304.63
2022-09-15T22:12:09.795Z,101307.22
2022-09-15T22:14:21.688Z,101306.38
2022-09-15T22:16:26.869Z,101318.47
2022-09-15T22:18:29.152Z,101315.88
2022-09-15T22:20:31.804Z,101321.94
2022-09-15T22:22:34.415Z,101317.59
2022-09-15T22:24:36.744Z,101331.47
2022-09-15T22:26:39.666Z,101325.41
2022-09-15T22:30:44.332Z,101325.41
2022-09-15T22:32:46.517Z,101319.34
2022-09-15T22:36:50.837Z,101326.22
2022-09-15T22:38:54.724Z,101327.97
2022-09-15T22:41:04.466Z,101315.81
2022-09-15T22:43:07.055Z,101314.09
2022-09-15T22:45:11.796Z,101316.66
2022-09-15T22:47:15.861Z,101321.00
2022-09-15T22:53:34.513Z,101325.31
2022-09-15T22:55:57.255Z,101325.31
2022-09-15T22:58:01.643Z,101316.66
2022-09-15T23:00:45.160Z,101326.19
2022-09-15T23:03:12.713Z,101327.91
2022-09-15T23:05:34.895Z,101320.97
2022-09-15T23:07:36.845Z,101328.78
2022-09-15T23:09:43.343Z,101329.59
2022-09-15T23:11:45.503Z,101326.13
2022-09-15T23:13:47.870Z,101327.00
2022-09-15T23:15:50.013Z,101327.00
2022-09-15T23:19:53.363Z,101323.47
2022-09-15T23:21:57.142Z,101336.47
2022-09-15T23:24:01.665Z,101333.88
2022-09-15T23:26:07.533Z,101327.81
2022-09-15T23:28:09.743Z,101332.97
2022-09-15T23:30:12.841Z,101336.44
2022-09-15T23:32:14.983Z,101331.22
2022-09-15T23:34:17.063Z,101332.13
2022-09-15T23:36:23.895Z,101326.91
2022-09-15T23:38:30.044Z,101327.75
2022-09-15T23:40:34.233Z,101336.41
2022-09-15T23:44:41.325Z,101346.75
2022-09-15T23:46:44.562Z,101339.78
2022-09-15T23:53:00.097Z,101337.19
2022-09-15T23:55:08.919Z,101338.03
2022-09-15T23:57:13.036Z,101333.66
2022-09-15T23:59:14.854Z,101338.00
